Time;durP1;ratioP1;P1;durP2;ratioP2;P2;SDS_P1;SDS_P2;PMS_P1;PMS_P2;Temp;Humidity;BMP_temperature;BMP_pressure;BME280_temperature;BME280_humidity;BME280_pressure;Samples;Min_cycle;Max_cycle;Signal;HPM_P1;HPM_P2
2023/06/12 00:01:20;;;;;;;5.00;4.50;;;;;;;;;;4986321;28;20054;-89
2023/06/12 00:03:47;;;;;;;6.50;4.45;;;;;;;;;;4969896;28;20050;-89
2023/06/12 00:06:16;;;;;;;6.00;4.72;;;;;;;;;;4977262;28;20061;-89
2023/06/12 00:08:43;;;;;;;5.05;4.22;;;;;;;;;;4961585;28;20054;-90
2023/06/12 00:11:12;;;;;;;5.53;4.45;;;;;;;;;;4973700;28;20046;-89
2023/06/12 00:13:41;;;;;;;5.13;4.57;;;;;;;;;;4975298;28;20055;-90
2023/06/12 00:16:09;;;;;;;6.40;4.90;;;;;;;;;;4977294;28;20138;-89
2023/06/12 00:18:40;;;;;;;4.82;4.43;;;;;;;;;;4943294;28;20065;-88
2023/06/12 00:21:08;;;;;;;6.30;5.15;;;;;;;;;;4943752;28;20051;-83
2023/06/12 00:23:39;;;;;;;9.15;4.57;;;;;;;;;;4960285;28;20138;-90
2023/06/12 00:26:07;;;;;;;6.10;5.22;;;;;;;;;;4958819;28;20059;-85
2023/06/12 00:28:33;;;;;;;5.75;5.25;;;;;;;;;;4959134;28;20113;-83
2023/06/12 00:31:00;;;;;;;5.47;4.97;;;;;;;;;;4974760;28;20061;-84
2023/06/12 00:33:27;;;;;;;5.00;4.60;;;;;;;;;;4975820;28;20077;-83
2023/06/12 00:35:54;;;;;;;5.53;4.82;;;;;;;;;;4976405;28;20042;-85
2023/06/12 00:38:22;;;;;;;5.88;5.10;;;;;;;;;;4992807;28;20066;-83
2023/06/12 00:40:49;;;;;;;5.22;4.72;;;;;;;;;;4991708;28;20055;-83
2023/06/12 00:43:16;;;;;;;7.13;4.93;;;;;;;;;;4976071;28;20133;-83
2023/06/12 00:45:43;;;;;;;5.60;4.85;;;;;;;;;;4992328;28;20137;-83
2023/06/12 00:48:10;;;;;;;5.47;4.80;;;;;;;;;;4991964;28;20097;-83
2023/06/12 00:50:39;;;;;;;7.25;5.25;;;;;;;;;;4976143;28;20142;-83
2023/06/12 00:53:06;;;;;;;6.50;4.75;;;;;;;;;;4960266;28;20083;-83
2023/06/12 00:55:33;;;;;;;6.32;4.95;;;;;;;;;;4991928;28;20051;-83
2023/06/12 00:58:01;;;;;;;5.72;4.75;;;;;;;;;;4984659;28;20054;-83
2023/06/12 01:00:28;;;;;;;9.43;5.80;;;;;;;;;;4956955;28;20050;-83
2023/06/12 01:02:58;;;;;;;4.85;4.45;;;;;;;;;;4947199;28;20062;-83
2023/06/12 01:05:32;;;;;;;5.43;4.35;;;;;;;;;;4963576;28;20483;-83
2023/06/12 01:08:15;;;;;;;5.57;4.50;;;;;;;;;;4944909;28;20462;-87
2023/06/12 01:10:58;;;;;;;5.35;4.85;;;;;;;;;;4985643;28;20059;-86
2023/06/12 01:13:25;;;;;;;5.15;4.68;;;;;;;;;;4963001;28;20061;-86
2023/06/12 01:15:51;;;;;;;5.15;4.63;;;;;;;;;;4974636;28;20495;-87
2023/06/12 01:18:21;;;;;;;5.03;4.45;;;;;;;;;;4976126;28;20058;-87
2023/06/12 01:20:49;;;;;;;7.47;5.05;;;;;;;;;;4975567;28;20054;-86
2023/06/12 01:23:40;;;;;;;4.80;4.40;;;;;;;;;;4972315;28;20046;-87
2023/06/12 01:26:13;;;;;;;5.22;4.75;;;;;;;;;;4980209;28;20518;-87
2023/06/12 01:28:46;;;;;;;;;;;;;;;;;;4989395;28;20117;-88
2023/06/12 01:31:34;;;;;;;;;;;;;;;;;;4975441;28;20397;-88
2023/06/12 01:34:12;;;;;;;6.93;5.25;;;;;;;;;;4973276;28;20025;-88
2023/06/12 01:36:42;;;;;;;5.95;5.22;;;;;;;;;;4971081;28;20062;-88
2023/06/12 01:39:09;;;;;;;5.70;5.13;;;;;;;;;;4974858;28;20414;-87
2023/06/12 01:41:35;;;;;;;5.53;5.03;;;;;;;;;;4975177;28;20142;-87
2023/06/12 01:44:07;;;;;;;5.70;5.10;;;;;;;;;;4949938;28;20055;-87
2023/06/12 01:46:35;;;;;;;5.47;4.97;;;;;;;;;;4942010;28;20117;-87
2023/06/12 01:49:06;;;;;;;7.97;4.97;;;;;;;;;;4941525;28;20443;-89
2023/06/12 01:51:33;;;;;;;4.88;4.47;;;;;;;;;;4942370;28;20059;-89
2023/06/12 01:54:00;;;;;;;5.35;4.78;;;;;;;;;;4978774;28;20511;-89
2023/06/12 01:56:28;;;;;;;5.13;4.63;;;;;;;;;;4990072;28;20082;-89
2023/06/12 01:58:54;;;;;;;5.20;4.70;;;;;;;;;;4959043;28;20729;-86
2023/06/12 02:01:23;;;;;;;6.85;5.35;;;;;;;;;;4977592;28;20479;-89
2023/06/12 02:03:53;;;;;;;5.95;4.75;;;;;;;;;;4988931;28;20066;-89
2023/06/12 02:06:20;;;;;;;5.35;4.22;;;;;;;;;;4969226;28;20514;-89
2023/06/12 02:08:47;;;;;;;5.53;4.88;;;;;;;;;;4975107;28;20458;-89
2023/06/12 02:11:14;;;;;;;5.88;5.30;;;;;;;;;;4973700;28;20050;-88
2023/06/12 02:13:41;;;;;;;5.28;4.45;;;;;;;;;;4941104;28;20089;-88
2023/06/12 02:16:08;;;;;;;4.65;4.25;;;;;;;;;;4968330;28;20089;-89
2023/06/12 02:18:35;;;;;;;5.80;4.45;;;;;;;;;;4990920;28;20100;-90
2023/06/12 02:21:01;;;;;;;5.82;4.82;;;;;;;;;;4987110;28;20047;-90
2023/06/12 02:23:28;;;;;;;6.15;5.10;;;;;;;;;;4940459;28;20046;-90
2023/06/12 02:25:55;;;;;;;5.30;4.47;;;;;;;;;;4960369;28;20503;-89
2023/06/12 02:28:22;;;;;;;5.25;4.43;;;;;;;;;;4972744;28;20094;-89
2023/06/12 02:30:49;;;;;;;5.78;4.80;;;;;;;;;;4957105;28;20105;-90
2023/06/12 02:33:15;;;;;;;6.80;4.70;;;;;;;;;;4992063;28;20470;-90
2023/06/12 02:35:42;;;;;;;5.40;4.90;;;;;;;;;;4990656;28;20054;-89
2023/06/12 02:38:09;;;;;;;5.45;4.93;;;;;;;;;;4990576;28;20054;-89
2023/06/12 02:40:36;;;;;;;4.78;4.38;;;;;;;;;;4990212;28;20058;-89
2023/06/12 02:43:03;;;;;;;4.70;4.30;;;;;;;;;;5004693;28;20116;-89
2023/06/12 02:45:30;;;;;;;5.32;4.82;;;;;;;;;;4955271;28;20562;-89
2023/06/12 02:47:57;;;;;;;8.77;5.35;;;;;;;;;;4987291;28;20106;-87
2023/06/12 02:50:23;;;;;;;5.05;4.57;;;;;;;;;;4987911;28;20050;-90
2023/06/12 02:52:50;;;;;;;5.35;4.85;;;;;;;;;;4987457;28;20090;-90
2023/06/12 02:55:18;;;;;;;5.47;4.93;;;;;;;;;;4955459;28;20062;-90
2023/06/12 02:57:45;;;;;;;6.18;5.53;;;;;;;;;;4956460;28;20102;-89
2023/06/12 03:00:15;;;;;;;6.22;5.30;;;;;;;;;;4990647;28;20070;-91
2023/06/12 03:02:47;;;;;;;5.82;5.18;;;;;;;;;;4976029;28;20105;-91
2023/06/12 03:05:15;;;;;;;6.35;5.13;;;;;;;;;;4979447;28;20050;-90
2023/06/12 03:07:42;;;;;;;5.63;5.07;;;;;;;;;;4962561;28;20080;-89
2023/06/12 03:10:09;;;;;;;5.40;4.90;;;;;;;;;;4959423;28;20053;-90
2023/06/12 03:12:37;;;;;;;5.70;4.80;;;;;;;;;;4944312;28;20133;-90
2023/06/12 03:15:05;;;;;;;5.88;5.28;;;;;;;;;;4958893;28;20043;-90
2023/06/12 03:17:31;;;;;;;6.05;5.20;;;;;;;;;;4994843;28;20050;-91
2023/06/12 03:19:58;;;;;;;5.32;4.75;;;;;;;;;;4961873;28;20055;-91
2023/06/12 03:22:26;;;;;;;5.43;4.72;;;;;;;;;;4966976;28;20059;-92
2023/06/12 03:24:53;;;;;;;5.63;4.45;;;;;;;;;;4964081;28;20046;-91
2023/06/12 03:27:22;;;;;;;7.20;5.00;;;;;;;;;;4980111;28;20050;-90
2023/06/12 03:29:49;;;;;;;4.85;4.45;;;;;;;;;;4971633;28;20050;-91
2023/06/12 03:32:16;;;;;;;5.50;5.00;;;;;;;;;;4959210;28;20059;-91
2023/06/12 03:34:42;;;;;;;6.18;4.95;;;;;;;;;;4967072;28;20105;-90
2023/06/12 03:37:09;;;;;;;6.07;5.20;;;;;;;;;;4959358;28;20074;-91
2023/06/12 03:39:36;;;;;;;5.03;4.55;;;;;;;;;;4959123;28;20105;-90
2023/06/12 03:42:03;;;;;;;7.13;4.93;;;;;;;;;;4959146;28;20055;-90
2023/06/12 03:44:31;;;;;;;7.00;5.25;;;;;;;;;;4944266;28;20054;-90
2023/06/12 03:46:59;;;;;;;6.10;5.57;;;;;;;;;;4952376;28;20050;-89
2023/06/12 03:49:26;;;;;;;5.88;5.10;;;;;;;;;;4961163;28;20059;-90
2023/06/12 03:51:53;;;;;;;7.22;5.53;;;;;;;;;;4993159;28;20047;-90
2023/06/12 03:54:20;;;;;;;8.05;5.63;;;;;;;;;;4990656;28;20055;-89
2023/06/12 03:56:48;;;;;;;7.63;6.03;;;;;;;;;;4948837;28;20074;-89
2023/06/12 03:59:16;;;;;;;10.60;5.95;;;;;;;;;;4956768;28;20054;-84
2023/06/12 04:01:42;;;;;;;9.07;6.80;;;;;;;;;;4958703;28;20093;-77
2023/06/12 04:04:10;;;;;;;8.65;6.90;;;;;;;;;;5003025;28;20102;-82
2023/06/12 04:06:40;;;;;;;7.85;7.05;;;;;;;;;;4992913;28;20557;-77
2023/06/12 04:09:09;;;;;;;8.23;7.25;;;;;;;;;;4983396;28;20055;-77
2023/06/12 04:11:38;;;;;;;10.35;7.80;;;;;;;;;;4955435;28;20113;-76
2023/06/12 04:14:06;;;;;;;9.02;7.47;;;;;;;;;;4990467;28;20079;-75
2023/06/12 04:16:34;;;;;;;9.85;7.20;;;;;;;;;;4940954;28;20388;-76
2023/06/12 04:19:03;;;;;;;7.43;6.80;;;;;;;;;;4957464;28;20118;-75
2023/06/12 04:21:33;;;;;;;11.07;6.78;;;;;;;;;;4977708;28;20054;-75
2023/06/12 04:24:02;;;;;;;7.63;6.85;;;;;;;;;;4976816;28;20098;-76
2023/06/12 04:26:31;;;;;;;9.18;7.43;;;;;;;;;;4973701;28;20137;-76
2023/06/12 04:29:01;;;;;;;8.68;7.47;;;;;;;;;;4964694;28;20058;-75
2023/06/12 04:31:28;;;;;;;7.55;6.80;;;;;;;;;;4989203;28;20051;-75
2023/06/12 04:33:55;;;;;;;6.72;6.03;;;;;;;;;;4986589;28;20054;-76
2023/06/12 04:36:22;;;;;;;7.50;6.57;;;;;;;;;;4992537;28;20042;-77
2023/06/12 04:38:52;;;;;;;7.03;6.28;;;;;;;;;;5009569;28;20119;-77
2023/06/12 04:41:20;;;;;;;12.07;6.30;;;;;;;;;;5005967;28;20058;-76
2023/06/12 04:43:48;;;;;;;6.30;5.70;;;;;;;;;;4976235;28;20101;-77
2023/06/12 04:46:19;;;;;;;6.28;5.63;;;;;;;;;;4992729;28;20486;-77
2023/06/12 04:48:47;;;;;;;6.65;5.32;;;;;;;;;;4976688;28;20051;-77
2023/06/12 04:51:14;;;;;;;6.00;5.32;;;;;;;;;;4971550;28;20050;-77
2023/06/12 04:53:43;;;;;;;8.05;5.35;;;;;;;;;;4976145;28;20498;-77
2023/06/12 04:56:12;;;;;;;6.50;5.35;;;;;;;;;;4961159;28;20145;-77
2023/06/12 04:58:41;;;;;;;5.40;4.90;;;;;;;;;;4960809;28;20062;-77
2023/06/12 05:01:08;;;;;;;6.13;5.30;;;;;;;;;;4975663;28;20605;-77
2023/06/12 05:03:35;;;;;;;6.55;5.63;;;;;;;;;;4992831;28;20149;-76
2023/06/12 05:06:03;;;;;;;6.10;5.45;;;;;;;;;;4992650;28;20046;-76
2023/06/12 05:08:30;;;;;;;6.18;5.28;;;;;;;;;;4982148;28;20090;-78
2023/06/12 05:11:00;;;;;;;6.43;5.13;;;;;;;;;;4977149;28;20550;-78
2023/06/12 05:13:26;;;;;;;6.15;5.18;;;;;;;;;;4960792;28;20073;-78
2023/06/12 05:15:53;;;;;;;12.70;5.47;;;;;;;;;;4977527;28;20050;-76
2023/06/12 05:18:20;;;;;;;5.78;5.20;;;;;;;;;;4974439;28;20103;-75
2023/06/12 05:20:47;;;;;;;5.32;4.82;;;;;;;;;;4973554;28;20078;-75
2023/06/12 05:23:14;;;;;;;6.28;5.28;;;;;;;;;;4990197;28;20518;-75
2023/06/12 05:25:41;;;;;;;5.88;5.28;;;;;;;;;;4990260;28;20074;-75
2023/06/12 05:28:08;;;;;;;7.10;5.15;;;;;;;;;;4989861;28;20113;-74
2023/06/12 05:30:35;;;;;;;5.70;5.20;;;;;;;;;;4981626;28;20129;-74
2023/06/12 05:33:02;;;;;;;6.95;5.35;;;;;;;;;;4980568;28;20065;-74
2023/06/12 05:35:31;;;;;;;5.68;4.93;;;;;;;;;;4991586;28;20046;-74
2023/06/12 05:37:58;;;;;;;6.50;5.53;;;;;;;;;;4974259;28;20577;-73
2023/06/12 05:40:24;;;;;;;5.63;5.13;;;;;;;;;;4983202;28;20519;-74
2023/06/12 05:42:51;;;;;;;5.57;4.75;;;;;;;;;;4971674;28;20523;-73
2023/06/12 05:45:18;;;;;;;6.72;5.05;;;;;;;;;;4954799;28;20086;-74
2023/06/12 05:47:46;;;;;;;6.18;5.03;;;;;;;;;;4954927;28;20169;-74
2023/06/12 05:50:17;;;;;;;5.83;4.80;;;;;;;;;;4976157;28;20542;-74
2023/06/12 05:52:44;;;;;;;5.88;5.32;;;;;;;;;;4972763;28;20554;-74
2023/06/12 05:55:11;;;;;;;5.63;4.45;;;;;;;;;;4972273;28;20499;-74
2023/06/12 05:57:38;;;;;;;5.50;5.00;;;;;;;;;;4989386;28;20148;-74
2023/06/12 06:00:06;;;;;;;6.38;5.53;;;;;;;;;;4955871;28;20061;-74
2023/06/12 06:02:33;;;;;;;5.63;5.13;;;;;;;;;;4973345;28;20058;-74
2023/06/12 06:05:01;;;;;;;7.30;5.28;;;;;;;;;;4989404;28;20149;-74
2023/06/12 06:07:28;;;;;;;5.65;5.13;;;;;;;;;;4973444;28;20150;-73
2023/06/12 06:09:55;;;;;;;5.65;5.07;;;;;;;;;;4986894;28;20059;-73
2023/06/12 06:12:22;;;;;;;5.85;5.25;;;;;;;;;;4987088;28;20055;-74
2023/06/12 06:14:49;;;;;;;6.10;5.43;;;;;;;;;;4994338;28;20388;-76
2023/06/12 06:17:16;;;;;;;5.28;4.70;;;;;;;;;;4975378;28;20109;-76
2023/06/12 06:19:43;;;;;;;6.78;4.80;;;;;;;;;;4974236;28;20112;-77
2023/06/12 06:22:12;;;;;;;5.93;5.35;;;;;;;;;;4971902;28;20093;-74
2023/06/12 06:24:38;;;;;;;6.10;5.15;;;;;;;;;;4954083;28;20142;-74
2023/06/12 06:27:07;;;;;;;5.90;5.30;;;;;;;;;;4970919;28;20054;-74
2023/06/12 06:29:34;;;;;;;6.72;5.35;;;;;;;;;;4938834;28;20086;-75
2023/06/12 06:32:01;;;;;;;6.35;5.28;;;;;;;;;;4988530;28;20116;-76
2023/06/12 06:34:28;;;;;;;7.00;5.45;;;;;;;;;;4989634;28;20125;-76
2023/06/12 06:36:56;;;;;;;6.72;5.55;;;;;;;;;;5005571;28;20058;-77
2023/06/12 06:39:23;;;;;;;8.52;5.50;;;;;;;;;;4997026;28;20057;-78
2023/06/12 06:41:50;;;;;;;8.25;5.70;;;;;;;;;;4992220;28;20062;-79
2023/06/12 06:44:17;;;;;;;5.25;4.75;;;;;;;;;;4997163;28;20054;-79
2023/06/12 06:46:44;;;;;;;5.55;5.05;;;;;;;;;;4998848;28;20104;-78
2023/06/12 06:49:11;;;;;;;5.13;4.70;;;;;;;;;;4996242;28;20138;-77
2023/06/12 06:51:38;;;;;;;6.50;4.50;;;;;;;;;;4982285;28;20062;-77
2023/06/12 06:54:05;;;;;;;4.88;4.47;;;;;;;;;;4976086;28;20058;-77
2023/06/12 06:56:32;;;;;;;8.43;4.85;;;;;;;;;;4960729;28;20482;-77
2023/06/12 06:58:58;;;;;;;5.80;4.50;;;;;;;;;;4961292;28;20062;-76
2023/06/12 07:01:25;;;;;;;5.75;5.22;;;;;;;;;;4990251;28;20569;-76
2023/06/12 07:03:52;;;;;;;5.70;5.20;;;;;;;;;;4980570;28;20057;-76
2023/06/12 07:06:19;;;;;;;5.30;4.80;;;;;;;;;;5007453;28;20052;-76
2023/06/12 07:08:46;;;;;;;7.07;5.38;;;;;;;;;;4998638;28;20498;-76
2023/06/12 07:11:12;;;;;;;5.57;4.47;;;;;;;;;;4989047;28;20050;-79
2023/06/12 07:13:40;;;;;;;4.88;4.47;;;;;;;;;;4965703;28;20054;-77
2023/06/12 07:16:07;;;;;;;6.85;4.88;;;;;;;;;;4992238;28;20553;-76
2023/06/12 07:18:34;;;;;;;6.38;4.97;;;;;;;;;;4989278;28;20051;-76
2023/06/12 07:21:03;;;;;;;5.30;4.82;;;;;;;;;;4964253;28;20113;-76
2023/06/12 07:23:30;;;;;;;5.63;4.90;;;;;;;;;;4972509;28;20060;-76
2023/06/12 07:25:57;;;;;;;5.85;4.70;;;;;;;;;;4985158;28;20106;-76
2023/06/12 07:28:28;;;;;;;4.95;4.30;;;;;;;;;;5002668;28;20495;-76
2023/06/12 07:30:58;;;;;;;5.60;5.10;;;;;;;;;;4972125;28;20078;-77
2023/06/12 07:33:24;;;;;;;5.30;4.80;;;;;;;;;;4987352;28;20081;-77
2023/06/12 07:35:51;;;;;;;4.78;4.35;;;;;;;;;;4990840;28;20490;-80
2023/06/12 07:38:23;;;;;;;4.88;4.47;;;;;;;;;;4998275;28;20050;-77
2023/06/12 07:40:50;;;;;;;5.53;4.43;;;;;;;;;;4983904;28;20126;-76
2023/06/12 07:43:17;;;;;;;5.28;4.60;;;;;;;;;;4978383;28;20078;-77
2023/06/12 07:45:45;;;;;;;4.70;4.30;;;;;;;;;;4980193;28;20132;-76
2023/06/12 07:48:12;;;;;;;5.85;4.30;;;;;;;;;;4976514;28;20108;-76
2023/06/12 07:50:39;;;;;;;5.70;4.90;;;;;;;;;;4970302;28;20058;-76
2023/06/12 07:53:06;;;;;;;5.93;4.90;;;;;;;;;;4962668;28;20198;-76
2023/06/12 07:55:46;;;;;;;4.50;4.10;;;;;;;;;;4971744;28;20086;-76
2023/06/12 07:58:13;;;;;;;4.82;4.35;;;;;;;;;;4983570;28;20062;-77
2023/06/12 08:00:40;;;;;;;5.05;4.55;;;;;;;;;;4993646;28;20518;-78
2023/06/12 08:03:08;;;;;;;4.72;4.05;;;;;;;;;;4969860;28;20065;-77
2023/06/12 08:05:55;;;;;;;5.18;4.68;;;;;;;;;;4983553;28;20046;-73
2023/06/12 08:08:22;;;;;;;5.05;4.00;;;;;;;;;;4992198;28;20092;-77
2023/06/12 08:10:49;;;;;;;5.93;4.70;;;;;;;;;;4980524;28;20502;-76
2023/06/12 08:13:16;;;;;;;4.95;4.50;;;;;;;;;;4988640;28;20110;-77
2023/06/12 08:15:43;;;;;;;6.72;4.40;;;;;;;;;;4957693;28;20073;-76
2023/06/12 08:18:10;;;;;;;5.43;4.10;;;;;;;;;;4982263;28;20180;-77
2023/06/12 08:20:37;;;;;;;4.78;4.05;;;;;;;;;;4996541;28;20166;-77
2023/06/12 08:23:04;;;;;;;5.20;4.80;;;;;;;;;;4983875;28;20533;-76
2023/06/12 08:25:32;;;;;;;4.53;4.13;;;;;;;;;;4974195;28;20050;-76
2023/06/12 08:27:59;;;;;;;5.13;4.45;;;;;;;;;;4985552;28;20585;-78
2023/06/12 08:30:26;;;;;;;6.28;4.78;;;;;;;;;;5000581;28;20074;-82
2023/06/12 08:32:54;;;;;;;6.53;4.05;;;;;;;;;;4985198;28;20131;-82
2023/06/12 08:35:20;;;;;;;4.72;4.30;;;;;;;;;;4984048;28;20058;-81
2023/06/12 08:37:47;;;;;;;5.10;4.57;;;;;;;;;;4996683;28;20117;-82
2023/06/12 08:40:15;;;;;;;4.60;3.55;;;;;;;;;;4990883;28;20052;-82
2023/06/12 08:42:51;;;;;;;4.20;3.80;;;;;;;;;;4989369;28;20062;-82
2023/06/12 08:45:23;;;;;;;3.75;3.45;;;;;;;;;;4952935;28;20477;-77
2023/06/12 08:47:50;;;;;;;;;;;;;;;;;;5004054;28;20042;-78
2023/06/12 08:50:18;;;;;;;4.13;3.72;;;;;;;;;;4970900;28;20020;-77
2023/06/12 08:52:50;;;;;;;4.45;3.78;;;;;;;;;;4971414;28;20113;-77
2023/06/12 08:55:17;;;;;;;5.07;3.87;;;;;;;;;;4954721;28;20085;-76
2023/06/12 08:57:45;;;;;;;7.32;4.15;;;;;;;;;;4984746;28;20081;-76
2023/06/12 09:00:13;;;;;;;4.38;3.97;;;;;;;;;;4968235;28;20051;-76
2023/06/12 09:02:45;;;;;;;6.25;4.72;;;;;;;;;;4988170;28;20065;-76
2023/06/12 09:05:15;;;;;;;4.95;4.03;;;;;;;;;;4983163;28;20051;-74
2023/06/12 09:07:44;;;;;;;6.18;4.22;;;;;;;;;;4965478;28;20466;-75
2023/06/12 09:10:11;;;;;;;4.95;3.95;;;;;;;;;;4969147;28;20058;-75
2023/06/12 09:12:43;;;;;;;4.25;3.50;;;;;;;;;;4946902;28;20061;-74
2023/06/12 09:15:20;;;;;;;4.50;4.07;;;;;;;;;;4977799;28;20051;-75
2023/06/12 09:17:51;;;;;;;5.35;4.07;;;;;;;;;;4969574;28;20061;-75
2023/06/12 09:20:28;;;;;;;5.47;3.70;;;;;;;;;;4975886;28;20125;-76
2023/06/12 09:23:10;;;;;;;4.55;3.80;;;;;;;;;;4965863;28;20046;-76
2023/06/12 09:25:39;;;;;;;4.90;3.97;;;;;;;;;;4952220;28;20061;-75
2023/06/12 09:28:09;;;;;;;5.18;3.70;;;;;;;;;;4970665;28;20053;-75
2023/06/12 09:30:40;;;;;;;6.30;4.20;;;;;;;;;;5007834;28;20049;-77
2023/06/12 09:33:08;;;;;;;4.85;4.00;;;;;;;;;;4987874;28;20466;-78
2023/06/12 09:36:04;;;;;;;3.90;3.47;;;;;;;;;;5008693;28;20054;-76
2023/06/12 09:38:32;;;;;;;3.55;3.25;;;;;;;;;;4979898;28;20090;-76
2023/06/12 09:41:01;;;;;;;5.07;3.63;;;;;;;;;;4975164;28;20081;-76
2023/06/12 09:43:28;;;;;;;4.25;3.85;;;;;;;;;;5004845;28;20057;-77
2023/06/12 09:45:57;;;;;;;4.55;3.95;;;;;;;;;;4985292;28;20174;-76
2023/06/12 09:48:31;;;;;;;5.05;3.85;;;;;;;;;;4974715;28;20046;-76
2023/06/12 09:50:59;;;;;;;4.88;3.67;;;;;;;;;;4967513;28;20050;-76
2023/06/12 09:53:26;;;;;;;4.03;3.38;;;;;;;;;;4964653;28;20512;-76
2023/06/12 09:55:53;;;;;;;3.90;3.60;;;;;;;;;;4977021;28;20127;-76
2023/06/12 09:58:21;;;;;;;5.10;3.80;;;;;;;;;;4984108;28;20163;-76
2023/06/12 10:00:48;;;;;;;4.35;3.78;;;;;;;;;;4966476;28;20511;-76
2023/06/12 10:03:15;;;;;;;4.20;3.80;;;;;;;;;;4972684;28;20045;-76
2023/06/12 10:05:47;;;;;;;4.60;3.78;;;;;;;;;;4973211;28;20149;-76
2023/06/12 10:08:16;;;;;;;4.30;3.90;;;;;;;;;;4962305;28;20097;-76
2023/06/12 10:10:43;;;;;;;4.63;3.88;;;;;;;;;;4986299;28;20101;-76
2023/06/12 10:13:11;;;;;;;5.38;3.92;;;;;;;;;;4965541;28;20042;-76
2023/06/12 10:15:38;;;;;;;4.15;3.75;;;;;;;;;;4992150;28;20057;-76
2023/06/12 10:18:08;;;;;;;4.00;3.70;;;;;;;;;;4951334;28;20078;-76
2023/06/12 10:20:36;;;;;;;4.45;4.03;;;;;;;;;;4985021;28;20085;-76
2023/06/12 10:23:02;;;;;;;5.35;3.60;;;;;;;;;;4968080;28;20093;-76
2023/06/12 10:25:30;;;;;;;4.55;3.95;;;;;;;;;;4983147;28;20047;-76
2023/06/12 10:27:57;;;;;;;6.32;3.95;;;;;;;;;;4976767;28;20086;-77
2023/06/12 10:30:24;;;;;;;3.92;3.53;;;;;;;;;;4967005;28;20078;-75
2023/06/12 10:32:51;;;;;;;4.22;3.83;;;;;;;;;;4978656;28;20054;-75
2023/06/12 10:35:30;;;;;;;5.25;4.00;;;;;;;;;;4996860;28;20058;-75
2023/06/12 10:37:57;;;;;;;5.35;3.70;;;;;;;;;;4977674;28;20471;-75
2023/06/12 10:40:24;;;;;;;5.15;3.50;;;;;;;;;;4989107;28;20236;-75
2023/06/12 10:43:12;;;;;;;4.68;3.80;;;;;;;;;;4978644;28;20495;-75
2023/06/12 10:45:38;;;;;;;4.75;3.58;;;;;;;;;;4977938;28;20055;-76
2023/06/12 10:48:05;;;;;;;5.03;3.88;;;;;;;;;;4988654;28;20061;-75
2023/06/12 10:50:43;;;;;;;4.22;3.50;;;;;;;;;;4984534;28;20439;-76
2023/06/12 10:53:20;;;;;;;6.30;3.65;;;;;;;;;;4962025;28;20077;-76
2023/06/12 10:55:47;;;;;;;4.38;3.55;;;;;;;;;;4974485;28;20097;-74
2023/06/12 10:58:21;;;;;;;4.25;3.60;;;;;;;;;;4963311;28;20120;-75
2023/06/12 11:00:52;;;;;;;3.70;3.40;;;;;;;;;;4993111;28;20042;-74
2023/06/12 11:03:26;;;;;;;6.72;3.75;;;;;;;;;;4966421;28;20046;-77
2023/06/12 11:06:01;;;;;;;4.35;3.72;;;;;;;;;;4995188;28;20047;-75
2023/06/12 11:08:30;;;;;;;5.78;3.80;;;;;;;;;;4964765;28;20057;-75
2023/06/12 11:11:00;;;;;;;6.00;3.38;;;;;;;;;;4979677;28;20070;-74
2023/06/12 11:13:27;;;;;;;4.88;3.42;;;;;;;;;;4979767;28;20066;-74
2023/06/12 11:15:55;;;;;;;5.60;4.00;;;;;;;;;;4977178;28;20046;-74
2023/06/12 11:18:21;;;;;;;4.68;3.95;;;;;;;;;;4967906;28;20074;-74
2023/06/12 11:20:55;;;;;;;4.65;3.42;;;;;;;;;;4981873;28;20537;-74
2023/06/12 11:23:27;;;;;;;3.78;3.38;;;;;;;;;;4980826;28;20106;-76
2023/06/12 11:25:57;;;;;;;3.95;2.85;;;;;;;;;;4997553;28;20086;-75
2023/06/12 11:28:26;;;;;;;3.22;2.92;;;;;;;;;;4952272;28;20054;-75
2023/06/12 11:30:56;;;;;;;3.55;3.20;;;;;;;;;;4963708;28;20467;-75
2023/06/12 11:33:37;;;;;;;4.22;3.38;;;;;;;;;;4981316;28;20134;-75
2023/06/12 11:36:04;;;;;;;6.75;3.53;;;;;;;;;;4992100;28;20712;-75
2023/06/12 11:38:31;;;;;;;4.75;3.42;;;;;;;;;;4968860;28;20414;-75
2023/06/12 11:41:00;;;;;;;6.18;3.60;;;;;;;;;;4984379;28;20396;-75
2023/06/12 11:43:29;;;;;;;3.50;3.20;;;;;;;;;;4964663;28;20185;-75
2023/06/12 11:45:56;;;;;;;4.10;3.38;;;;;;;;;;4973951;28;20112;-75
2023/06/12 11:48:23;;;;;;;4.78;3.90;;;;;;;;;;4951318;28;20542;-75
2023/06/12 11:50:53;;;;;;;3.58;3.25;;;;;;;;;;4963583;28;20405;-75
2023/06/12 11:53:20;;;;;;;3.40;3.10;;;;;;;;;;4974133;28;20111;-75
2023/06/12 11:55:48;;;;;;;4.00;3.60;;;;;;;;;;4963858;28;20183;-75
2023/06/12 11:58:18;;;;;;;6.22;3.05;;;;;;;;;;4982579;28;20047;-75
2023/06/12 12:00:49;;;;;;;3.90;3.60;;;;;;;;;;4965226;28;20054;-75
2023/06/12 12:03:16;;;;;;;6.93;3.30;;;;;;;;;;4980850;28;20055;-75
2023/06/12 12:05:43;;;;;;;4.43;3.33;;;;;;;;;;4968609;28;20052;-75
2023/06/12 12:08:10;;;;;;;4.68;3.55;;;;;;;;;;4987747;28;20075;-75
2023/06/12 12:10:41;;;;;;;4.63;3.25;;;;;;;;;;4984270;28;20515;-76
2023/06/12 12:13:08;;;;;;;5.03;3.70;;;;;;;;;;4951066;28;20109;-75
2023/06/12 12:15:40;;;;;;;3.45;3.15;;;;;;;;;;5001131;28;20047;-77
2023/06/12 12:18:12;;;;;;;6.18;3.80;;;;;;;;;;4984129;28;20058;-77
2023/06/12 12:20:39;;;;;;;5.75;3.95;;;;;;;;;;4981742;28;20527;-81
2023/06/12 12:23:12;;;;;;;4.32;3.60;;;;;;;;;;4975946;28;20058;-86
2023/06/12 12:25:44;;;;;;;7.82;3.83;;;;;;;;;;4990316;28;20086;-88
2023/06/12 12:28:11;;;;;;;5.82;3.80;;;;;;;;;;4983719;28;20798;-77
2023/06/12 12:30:38;;;;;;;4.13;3.72;;;;;;;;;;4991191;28;20078;-83
2023/06/12 12:33:05;;;;;;;5.38;3.90;;;;;;;;;;4993807;28;20042;-78
2023/06/12 12:35:31;;;;;;;5.07;3.10;;;;;;;;;;4988634;28;20057;-78
2023/06/12 12:37:58;;;;;;;3.78;3.47;;;;;;;;;;4986596;28;20046;-78
2023/06/12 12:40:28;;;;;;;5.45;3.60;;;;;;;;;;4981439;28;20074;-78
2023/06/12 12:42:55;;;;;;;4.30;3.90;;;;;;;;;;4977724;28;20077;-78
2023/06/12 12:45:34;;;;;;;5.68;3.90;;;;;;;;;;5004430;28;20054;-78
2023/06/12 12:48:10;;;;;;;3.72;3.33;;;;;;;;;;4998084;28;20042;-78
2023/06/12 12:50:37;;;;;;;3.67;3.38;;;;;;;;;;4999793;28;20078;-78
2023/06/12 12:53:22;;;;;;;3.78;3.33;;;;;;;;;;4978018;28;20271;-78
2023/06/12 12:55:49;;;;;;;3.67;3.33;;;;;;;;;;4986044;28;20062;-78
2023/06/12 12:58:16;;;;;;;4.22;3.70;;;;;;;;;;5002474;28;20053;-78
2023/06/12 13:00:48;;;;;;;3.83;3.47;;;;;;;;;;5003786;28;20058;-78
2023/06/12 13:03:17;;;;;;;3.95;3.30;;;;;;;;;;4985258;28;20070;-79
2023/06/12 13:05:50;;;;;;;3.65;3.33;;;;;;;;;;4985736;28;20096;-78
2023/06/12 13:08:17;;;;;;;4.35;3.38;;;;;;;;;;4962738;28;20472;-78
2023/06/12 13:10:44;;;;;;;3.70;3.15;;;;;;;;;;4978250;28;20049;-78
2023/06/12 13:13:11;;;;;;;3.67;3.33;;;;;;;;;;4992334;28;20050;-78
2023/06/12 13:15:41;;;;;;;3.42;3.13;;;;;;;;;;4996324;28;20054;-78
2023/06/12 13:18:22;;;;;;;3.75;3.25;;;;;;;;;;4994812;28;20076;-81
2023/06/12 13:20:49;;;;;;;5.22;3.90;;;;;;;;;;4989837;28;20174;-78
2023/06/12 13:23:16;;;;;;;4.68;3.58;;;;;;;;;;4999194;28;20057;-80
2023/06/12 13:25:44;;;;;;;3.90;3.40;;;;;;;;;;4985631;28;20054;-78
2023/06/12 13:28:10;;;;;;;6.15;3.88;;;;;;;;;;4982580;28;20047;-78
2023/06/12 13:30:37;;;;;;;4.18;3.50;;;;;;;;;;4981182;28;20054;-78
2023/06/12 13:33:04;;;;;;;4.10;3.35;;;;;;;;;;4989881;28;20499;-78
2023/06/12 13:35:31;;;;;;;3.63;3.33;;;;;;;;;;4972675;28;20054;-76
2023/06/12 13:37:58;;;;;;;5.45;3.42;;;;;;;;;;4973040;28;20499;-76
2023/06/12 13:40:24;;;;;;;4.38;3.10;;;;;;;;;;4979063;28;20459;-77
2023/06/12 13:42:51;;;;;;;4.63;3.00;;;;;;;;;;4989085;28;20054;-76
2023/06/12 13:45:19;;;;;;;4.35;2.90;;;;;;;;;;4979765;28;20082;-76
2023/06/12 13:47:46;;;;;;;3.33;3.03;;;;;;;;;;4967992;28;20101;-77
2023/06/12 13:50:13;;;;;;;3.35;3.08;;;;;;;;;;4987979;28;20065;-77
2023/06/12 13:52:40;;;;;;;4.70;3.20;;;;;;;;;;4967687;28;20090;-77
2023/06/12 13:55:07;;;;;;;3.20;2.88;;;;;;;;;;4962040;28;20463;-76
2023/06/12 13:57:37;;;;;;;3.25;2.95;;;;;;;;;;4964733;28;20093;-77
2023/06/12 14:00:07;;;;;;;3.55;3.25;;;;;;;;;;4954870;28;20136;-76
2023/06/12 14:02:34;;;;;;;4.53;3.50;;;;;;;;;;4970018;28;20061;-75
2023/06/12 14:05:01;;;;;;;3.88;3.33;;;;;;;;;;4947905;28;20054;-76
2023/06/12 14:07:30;;;;;;;3.80;3.10;;;;;;;;;;4978645;28;20065;-76
2023/06/12 14:09:57;;;;;;;4.50;3.63;;;;;;;;;;4977930;28;20054;-75
2023/06/12 14:12:24;;;;;;;3.80;3.50;;;;;;;;;;4980210;28;20459;-76
2023/06/12 14:14:50;;;;;;;4.43;3.25;;;;;;;;;;4968190;28;20054;-75
2023/06/12 14:17:17;;;;;;;3.67;3.38;;;;;;;;;;4964572;28;20274;-76
2023/06/12 14:19:44;;;;;;;3.92;3.15;;;;;;;;;;4956004;28;20598;-77
2023/06/12 14:22:11;;;;;;;3.15;2.95;;;;;;;;;;4985955;28;20050;-78
2023/06/12 14:24:43;;;;;;;4.18;3.00;;;;;;;;;;4988893;28;20085;-77
2023/06/12 14:27:10;;;;;;;3.85;3.45;;;;;;;;;;4968284;28;20077;-78
2023/06/12 14:29:37;;;;;;;3.38;3.03;;;;;;;;;;4987016;28;20483;-82
2023/06/12 14:32:04;;;;;;;3.45;3.15;;;;;;;;;;4965400;28;20046;-77
2023/06/12 14:34:31;;;;;;;6.07;3.05;;;;;;;;;;4972634;28;20141;-76
2023/06/12 14:36:58;;;;;;;3.83;3.30;;;;;;;;;;4986197;28;20054;-76
2023/06/12 14:39:25;;;;;;;4.00;3.60;;;;;;;;;;4981467;28;20422;-77
2023/06/12 14:41:52;;;;;;;4.20;3.70;;;;;;;;;;5007345;28;20086;-77
2023/06/12 14:44:19;;;;;;;3.95;3.33;;;;;;;;;;4991136;28;20144;-76
2023/06/12 14:46:45;;;;;;;4.10;3.38;;;;;;;;;;4974223;28;20057;-75
2023/06/12 14:49:12;;;;;;;3.10;2.90;;;;;;;;;;4965467;28;20534;-75
2023/06/12 14:51:39;;;;;;;4.05;3.00;;;;;;;;;;4979282;28;20062;-75